createdAt,value
2019-06-27T00:01:36.650Z,5.17
2019-06-27T00:04:06.451Z,6.27
2019-06-27T00:06:36.338Z,5.40
2019-06-27T00:09:09.346Z,6.67
2019-06-27T00:11:39.106Z,4.87
2019-06-27T00:14:09.010Z,4.67
2019-06-27T00:16:38.897Z,5.00
2019-06-27T00:19:08.695Z,5.50
2019-06-27T00:21:38.538Z,5.90
2019-06-27T00:24:08.317Z,5.90
2019-06-27T00:26:38.173Z,5.50
2019-06-27T00:29:07.970Z,5.07
2019-06-27T00:31:37.741Z,5.80
2019-06-27T00:34:07.566Z,5.90
2019-06-27T00:36:37.327Z,6.03
2019-06-27T00:39:07.319Z,5.10
2019-06-27T00:41:37.175Z,5.83
2019-06-27T00:44:06.976Z,5.30
2019-06-27T00:46:36.779Z,5.77
2019-06-27T00:49:06.614Z,5.20
2019-06-27T00:51:36.466Z,5.80
2019-06-27T00:54:06.365Z,5.47
2019-06-27T00:56:36.221Z,7.00
2019-06-27T00:59:06.131Z,5.33
2019-06-27T01:01:36.004Z,4.73
2019-06-27T01:04:05.841Z,6.17
2019-06-27T01:06:35.662Z,5.43
2019-06-27T01:09:07.283Z,5.70
2019-06-27T01:11:37.195Z,6.23
2019-06-27T01:14:07.184Z,5.47
2019-06-27T01:16:37.016Z,5.20
2019-06-27T01:19:06.776Z,6.70
2019-06-27T01:21:36.820Z,5.13
2019-06-27T01:24:06.550Z,5.10
2019-06-27T01:26:36.443Z,5.33
2019-06-27T01:29:06.277Z,6.10
2019-06-27T01:31:36.069Z,5.40
2019-06-27T01:34:05.981Z,5.70
2019-06-27T01:36:35.915Z,5.70
2019-06-27T01:39:05.926Z,6.70
2019-06-27T01:41:35.876Z,5.17
2019-06-27T01:44:07.964Z,5.57
2019-06-27T01:46:37.868Z,7.20
2019-06-27T01:49:07.742Z,5.50
2019-06-27T01:51:37.451Z,5.47
2019-06-27T01:54:07.408Z,5.63
2019-06-27T01:56:37.172Z,5.30
2019-06-27T01:59:06.920Z,5.47
2019-06-27T02:01:36.780Z,5.97
2019-06-27T02:04:06.643Z,5.60
2019-06-27T02:06:36.371Z,6.80
2019-06-27T02:09:06.638Z,6.50
2019-06-27T02:11:36.428Z,6.60
2019-06-27T02:14:06.258Z,6.47
2019-06-27T02:16:36.114Z,6.57
2019-06-27T02:19:06.016Z,6.83
2019-06-27T02:21:36.009Z,7.53
2019-06-27T02:24:05.799Z,7.30
2019-06-27T02:26:35.767Z,11.07
2019-06-27T02:29:05.675Z,8.90
2019-06-27T02:31:35.413Z,8.10
2019-06-27T02:34:07.041Z,9.97
2019-06-27T02:36:36.874Z,7.47
2019-06-27T02:39:07.071Z,8.27
2019-06-27T02:41:36.931Z,7.60
2019-06-27T02:44:06.698Z,7.77
2019-06-27T02:46:36.548Z,8.93
2019-06-27T02:49:06.418Z,8.27
2019-06-27T02:51:36.349Z,7.70
2019-06-27T02:54:06.204Z,10.60
2019-06-27T02:56:36.019Z,7.87
2019-06-27T02:59:05.897Z,7.70
2019-06-27T03:01:35.700Z,8.20
2019-06-27T03:04:05.451Z,10.03
2019-06-27T03:06:35.390Z,8.03
2019-06-27T03:09:05.722Z,8.10
2019-06-27T03:11:35.692Z,7.30
2019-06-27T03:14:05.560Z,7.80
2019-06-27T03:16:35.404Z,7.27
2019-06-27T03:19:05.251Z,8.37
2019-06-27T03:21:35.076Z,7.40
2019-06-27T03:24:05.011Z,8.13
2019-06-27T03:26:34.883Z,8.57
2019-06-27T03:29:04.737Z,7.10
2019-06-27T03:31:34.553Z,7.67
2019-06-27T03:34:04.321Z,8.50
2019-06-27T03:36:34.235Z,7.20
2019-06-27T03:39:05.576Z,7.17
2019-06-27T03:41:35.344Z,6.90
2019-06-27T03:44:05.103Z,9.50
2019-06-27T03:46:34.981Z,8.17
2019-06-27T03:49:04.792Z,8.50
2019-06-27T03:51:34.664Z,9.80
2019-06-27T03:54:04.444Z,8.30
2019-06-27T03:56:34.274Z,10.93
2019-06-27T03:59:12.112Z,11.70
2019-06-27T04:01:35.576Z,10.77
2019-06-27T04:04:05.468Z,12.10
2019-06-27T04:06:35.278Z,11.97
2019-06-27T04:09:05.871Z,9.37
2019-06-27T04:11:35.725Z,12.23
2019-06-27T04:14:05.594Z,11.90
2019-06-27T04:16:38.801Z,10.50
2019-06-27T04:19:08.987Z,10.40
2019-06-27T04:21:38.895Z,11.27
2019-06-27T04:24:08.704Z,9.07
2019-06-27T04:26:38.550Z,9.03
2019-06-27T04:29:08.397Z,8.13
2019-06-27T04:31:38.224Z,10.07
2019-06-27T04:34:08.015Z,9.20
2019-06-27T04:36:37.829Z,8.67
2019-06-27T04:39:07.656Z,7.80
2019-06-27T04:41:37.444Z,8.33
2019-06-27T04:44:07.226Z,8.60
2019-06-27T04:46:37.064Z,8.43
2019-06-27T04:49:06.931Z,9.17
2019-06-27T04:51:36.746Z,7.20
2019-06-27T04:54:06.499Z,7.20
2019-06-27T04:56:36.311Z,8.00
2019-06-27T04:59:06.234Z,6.23
2019-06-27T05:01:36.042Z,7.07
2019-06-27T05:04:05.839Z,7.50
2019-06-27T05:06:35.679Z,6.33
2019-06-27T05:09:05.652Z,6.43
2019-06-27T05:11:35.410Z,8.00
2019-06-27T05:14:05.345Z,8.50
2019-06-27T05:16:35.208Z,10.33
2019-06-27T05:19:05.032Z,8.27
2019-06-27T05:21:34.797Z,7.10
2019-06-27T05:24:04.796Z,8.50
2019-06-27T05:26:34.705Z,6.60
2019-06-27T05:29:04.578Z,8.73
2019-06-27T05:31:34.389Z,7.80
2019-06-27T05:34:04.312Z,6.93
2019-06-27T05:36:34.308Z,10.87
2019-06-27T05:39:06.011Z,9.37
2019-06-27T05:41:35.931Z,8.00
2019-06-27T05:44:05.713Z,6.30
2019-06-27T05:46:35.575Z,7.07
2019-06-27T05:49:05.468Z,5.87
2019-06-27T05:51:35.200Z,7.43
2019-06-27T05:54:05.040Z,6.00
2019-06-27T05:56:36.285Z,5.97
2019-06-27T05:59:06.064Z,6.17
2019-06-27T06:01:35.958Z,9.37
2019-06-27T06:04:05.820Z,6.33
2019-06-27T06:06:35.599Z,6.83
2019-06-27T06:09:06.051Z,6.03
2019-06-27T06:11:35.951Z,11.37
2019-06-27T06:14:05.751Z,7.77
2019-06-27T06:16:35.515Z,7.37
2019-06-27T06:19:05.402Z,5.50
2019-06-27T06:21:35.216Z,5.60
2019-06-27T06:24:05.041Z,6.23
2019-06-27T06:26:34.941Z,5.00
2019-06-27T06:29:05.031Z,6.07
2019-06-27T06:31:34.884Z,5.53
2019-06-27T06:34:04.770Z,6.80
2019-06-27T06:36:34.762Z,5.93
2019-06-27T06:39:06.241Z,6.87
2019-06-27T06:41:36.069Z,5.17
2019-06-27T06:44:05.956Z,6.43
2019-06-27T06:46:35.808Z,5.27
2019-06-27T06:49:05.684Z,5.60
2019-06-27T06:51:35.509Z,9.80
2019-06-27T06:54:05.429Z,8.37
2019-06-27T06:56:35.250Z,7.47
2019-06-27T06:59:05.117Z,8.33
2019-06-27T07:01:35.115Z,8.47
2019-06-27T07:04:04.853Z,9.03
2019-06-27T07:06:34.789Z,6.60
2019-06-27T07:09:05.350Z,7.67
2019-06-27T07:11:35.124Z,5.73
2019-06-27T07:14:05.009Z,8.70
2019-06-27T07:16:34.904Z,8.80
2019-06-27T07:19:04.763Z,6.30
2019-06-27T07:21:34.549Z,8.33
2019-06-27T07:24:04.394Z,12.67
2019-06-27T07:26:34.228Z,7.10
2019-06-27T07:29:04.048Z,10.10
2019-06-27T07:31:33.985Z,8.77
2019-06-27T07:34:03.946Z,7.47
2019-06-27T07:36:33.869Z,7.00
2019-06-27T07:39:04.622Z,8.47
2019-06-27T07:41:34.517Z,7.30
2019-06-27T07:44:04.554Z,7.53
2019-06-27T07:46:34.342Z,8.87
2019-06-27T07:49:04.113Z,9.77
2019-06-27T07:51:33.954Z,10.30
2019-06-27T07:54:03.765Z,9.40
2019-06-27T07:56:33.577Z,9.13
2019-06-27T07:59:03.464Z,9.07
2019-06-27T08:01:35.461Z,8.47
2019-06-27T08:04:04.852Z,10.13
2019-06-27T08:06:34.671Z,9.03
2019-06-27T08:09:04.860Z,9.17
2019-06-27T08:11:34.747Z,9.90
2019-06-27T08:14:04.601Z,8.07
2019-06-27T08:16:34.500Z,8.73
2019-06-27T08:19:04.487Z,8.50
2019-06-27T08:21:34.274Z,8.27
2019-06-27T08:24:04.038Z,8.77
2019-06-27T08:26:33.839Z,10.00
2019-06-27T08:29:03.692Z,13.70
2019-06-27T08:31:33.495Z,8.93
2019-06-27T08:34:03.202Z,9.57
2019-06-27T08:36:33.146Z,9.20
2019-06-27T08:39:03.010Z,13.57
2019-06-27T08:41:32.879Z,9.60
2019-06-27T08:44:02.856Z,10.67
2019-06-27T08:46:32.599Z,9.07
2019-06-27T08:49:02.489Z,9.57
2019-06-27T08:51:32.395Z,11.03
2019-06-27T08:54:02.254Z,10.00
2019-06-27T08:56:32.067Z,10.47
2019-06-27T08:59:01.941Z,11.03
2019-06-27T09:01:31.912Z,8.87
2019-06-27T09:04:01.731Z,10.53
2019-06-27T09:06:31.518Z,9.60
2019-06-27T09:09:01.407Z,9.50
2019-06-27T09:11:33.852Z,9.73
2019-06-27T09:14:02.597Z,10.03
2019-06-27T09:16:32.455Z,9.43
2019-06-27T09:19:02.307Z,10.23
2019-06-27T09:21:32.047Z,8.87
2019-06-27T09:24:01.895Z,10.07
2019-06-27T09:26:32.219Z,8.87
2019-06-27T09:29:02.032Z,9.83
2019-06-27T09:31:31.907Z,10.57
2019-06-27T09:34:01.836Z,10.73
2019-06-27T09:36:31.775Z,9.23
2019-06-27T09:39:01.686Z,8.80
2019-06-27T09:41:31.562Z,9.67
2019-06-27T09:44:01.419Z,8.90
2019-06-27T09:46:31.183Z,8.63
2019-06-27T09:49:01.089Z,8.00
2019-06-27T09:51:31.067Z,8.63
2019-06-27T09:54:00.849Z,9.00
2019-06-27T09:56:30.590Z,10.13
2019-06-27T09:59:00.524Z,12.03
2019-06-27T10:01:30.392Z,9.30
2019-06-27T10:04:00.218Z,9.90
2019-06-27T10:06:30.099Z,12.47
2019-06-27T10:08:59.949Z,10.13
2019-06-27T10:11:29.739Z,10.50
2019-06-27T10:13:59.599Z,11.37
2019-06-27T10:16:29.373Z,10.43
2019-06-27T10:18:59.155Z,9.93
2019-06-27T10:21:29.007Z,9.77
2019-06-27T10:23:58.764Z,9.97
2019-06-27T10:26:28.491Z,12.40
2019-06-27T10:28:58.323Z,10.43
2019-06-27T10:31:28.155Z,9.17
2019-06-27T10:33:57.985Z,9.47
2019-06-27T10:36:27.913Z,10.43
2019-06-27T10:38:57.712Z,12.17
2019-06-27T10:41:27.549Z,9.57
2019-06-27T10:43:58.569Z,10.20
2019-06-27T10:46:28.506Z,9.43
2019-06-27T10:48:58.257Z,11.07
2019-06-27T10:51:28.029Z,9.97
2019-06-27T10:53:57.904Z,9.67
2019-06-27T10:56:27.635Z,9.53
2019-06-27T10:58:57.354Z,15.40
2019-06-27T11:01:27.252Z,8.90
2019-06-27T11:03:57.008Z,9.10
2019-06-27T11:06:26.922Z,9.30
2019-06-27T11:08:56.706Z,10.47
2019-06-27T11:11:26.540Z,11.63
2019-06-27T11:13:59.112Z,9.60
2019-06-27T11:16:27.872Z,9.97
2019-06-27T11:18:57.723Z,8.80
2019-06-27T11:21:27.527Z,9.77
2019-06-27T11:23:57.295Z,9.43
2019-06-27T11:26:27.134Z,9.40
2019-06-27T11:28:56.940Z,9.63
2019-06-27T11:31:26.696Z,9.90
2019-06-27T11:33:56.621Z,9.60
2019-06-27T11:36:26.480Z,9.23
2019-06-27T11:38:56.258Z,10.00
2019-06-27T11:41:25.999Z,10.10
2019-06-27T11:43:55.843Z,11.00
2019-06-27T11:46:25.575Z,10.07
2019-06-27T11:48:55.455Z,9.47
2019-06-27T11:51:25.229Z,9.73
2019-06-27T11:53:55.008Z,10.23
2019-06-27T11:56:24.810Z,10.30
2019-06-27T11:58:54.563Z,11.17
2019-06-27T12:01:24.449Z,9.63
2019-06-27T12:03:54.279Z,11.27
2019-06-27T12:06:24.175Z,10.93
2019-06-27T12:08:54.097Z,12.20
2019-06-27T12:11:23.998Z,11.63
2019-06-27T12:13:53.847Z,10.53
2019-06-27T12:16:23.689Z,12.67
2019-06-27T12:18:53.468Z,11.00
2019-06-27T12:21:23.230Z,13.93
2019-06-27T12:23:53.165Z,13.93
2019-06-27T12:26:22.987Z,11.60
2019-06-27T12:28:52.752Z,12.53
2019-06-27T12:31:22.565Z,12.33
2019-06-27T12:34:06.351Z,13.83
2019-06-27T12:36:23.866Z,13.20
2019-06-27T12:38:53.679Z,11.47
2019-06-27T12:41:23.528Z,11.07
2019-06-27T12:43:53.367Z,11.00
2019-06-27T12:46:23.416Z,9.97
2019-06-27T12:48:53.222Z,11.70
2019-06-27T12:51:23.045Z,9.57
2019-06-27T12:53:55.677Z,9.27
2019-06-27T12:56:24.324Z,10.77
2019-06-27T12:58:54.104Z,10.97
2019-06-27T13:01:23.987Z,11.37
2019-06-27T13:03:53.762Z,11.03
2019-06-27T13:06:23.493Z,11.63
2019-06-27T13:08:53.353Z,11.57
2019-06-27T13:11:23.111Z,11.90
2019-06-27T13:13:52.966Z,10.50
2019-06-27T13:16:22.832Z,11.93
2019-06-27T13:18:52.646Z,10.00
2019-06-27T13:21:22.490Z,11.83
2019-06-27T13:23:52.322Z,11.20
2019-06-27T13:26:22.100Z,9.80
2019-06-27T13:28:51.901Z,9.90
2019-06-27T13:31:21.709Z,9.20
2019-06-27T13:33:51.508Z,9.57
2019-06-27T13:36:21.299Z,8.60
2019-06-27T13:38:51.139Z,8.70
2019-06-27T13:41:20.971Z,8.57
2019-06-27T13:43:50.708Z,11.00
2019-06-27T13:46:20.472Z,9.53
2019-06-27T13:48:50.312Z,8.93
2019-06-27T13:51:20.176Z,9.07
2019-06-27T13:53:51.133Z,11.00
2019-06-27T13:56:20.854Z,9.57
2019-06-27T13:58:50.623Z,8.50
2019-06-27T14:01:20.412Z,9.30
2019-06-27T14:03:50.229Z,8.83
2019-06-27T14:06:20.196Z,10.03
2019-06-27T14:08:50.196Z,9.53
2019-06-27T14:11:19.962Z,9.17
2019-06-27T14:13:49.708Z,9.60
2019-06-27T14:16:19.521Z,9.17
2019-06-27T14:18:49.256Z,10.43
2019-06-27T14:21:19.068Z,10.20
2019-06-27T14:23:48.892Z,9.10
2019-06-27T14:26:18.744Z,9.13
2019-06-27T14:28:48.476Z,9.17
2019-06-27T14:31:18.382Z,10.17
2019-06-27T14:33:48.169Z,9.60
2019-06-27T14:36:17.980Z,9.37
2019-06-27T14:38:47.748Z,11.70
2019-06-27T14:41:17.530Z,10.30
2019-06-27T14:43:47.391Z,9.20
2019-06-27T14:46:17.156Z,9.00
2019-06-27T14:48:46.916Z,9.30
2019-06-27T14:51:16.764Z,9.90
2019-06-27T14:53:46.569Z,9.00
2019-06-27T14:56:16.356Z,8.63
2019-06-27T14:58:46.233Z,8.73
2019-06-27T15:01:16.249Z,9.63
2019-06-27T15:03:46.116Z,9.17
2019-06-27T15:06:16.132Z,10.83
2019-06-27T15:08:46.044Z,10.43
2019-06-27T15:11:15.850Z,8.40
2019-06-27T15:13:45.645Z,9.53
2019-06-27T15:16:15.514Z,10.43
2019-06-27T15:18:45.749Z,12.73
2019-06-27T15:21:15.540Z,9.00
2019-06-27T15:23:45.297Z,9.90
2019-06-27T15:26:15.141Z,10.77
2019-06-27T15:28:45.008Z,8.77
2019-06-27T15:31:14.794Z,10.43
2019-06-27T15:33:44.695Z,9.80
2019-06-27T15:36:14.550Z,9.03
2019-06-27T15:38:44.351Z,9.27
2019-06-27T15:41:14.193Z,9.47
2019-06-27T15:43:43.960Z,9.97
2019-06-27T15:46:13.873Z,9.20
2019-06-27T15:48:43.652Z,10.40
2019-06-27T15:51:13.367Z,10.13
2019-06-27T15:53:43.237Z,8.40
2019-06-27T15:56:13.025Z,9.70
2019-06-27T15:58:42.894Z,8.37
2019-06-27T16:01:12.653Z,8.33
2019-06-27T16:03:42.455Z,9.20
2019-06-27T16:06:14.882Z,9.13
2019-06-27T16:08:43.761Z,10.10
2019-06-27T16:11:13.726Z,12.27
2019-06-27T16:13:43.542Z,11.27
2019-06-27T16:16:13.460Z,10.40
2019-06-27T16:18:43.257Z,8.67
2019-06-27T16:21:13.091Z,8.63
2019-06-27T16:23:42.813Z,9.20
2019-06-27T16:26:12.566Z,8.97
2019-06-27T16:28:42.441Z,8.40
2019-06-27T16:31:12.199Z,9.60
2019-06-27T16:33:42.095Z,8.30
2019-06-27T16:36:24.816Z,10.23
2019-06-27T16:38:43.871Z,9.10
2019-06-27T16:41:13.660Z,7.77
2019-06-27T16:43:43.520Z,8.40
2019-06-27T16:46:13.252Z,8.10
2019-06-27T16:48:43.062Z,8.80
2019-06-27T16:51:12.970Z,8.50
2019-06-27T16:53:42.771Z,10.80
2019-06-27T16:56:12.564Z,8.67
2019-06-27T16:58:42.397Z,10.00
2019-06-27T17:01:12.156Z,9.70
2019-06-27T17:03:41.928Z,8.77
2019-06-27T17:06:11.731Z,8.00
2019-06-27T17:08:41.568Z,9.07
2019-06-27T17:11:11.282Z,8.77
2019-06-27T17:13:41.171Z,8.03
2019-06-27T17:16:10.995Z,9.53
2019-06-27T17:18:40.730Z,8.33
2019-06-27T17:21:10.592Z,9.47
2019-06-27T17:23:40.365Z,7.73
2019-06-27T17:26:11.711Z,7.70
2019-06-27T17:28:41.649Z,7.90
2019-06-27T17:31:11.553Z,7.83
2019-06-27T17:33:41.324Z,11.47
2019-06-27T17:36:11.168Z,8.10
2019-06-27T17:38:41.907Z,7.70
2019-06-27T17:41:11.755Z,9.53
2019-06-27T17:43:41.698Z,8.10
2019-06-27T17:46:11.432Z,8.83
2019-06-27T17:48:41.297Z,7.60
2019-06-27T17:51:11.141Z,8.90
2019-06-27T17:53:40.986Z,9.30
2019-06-27T17:56:10.704Z,12.50
2019-06-27T17:58:40.624Z,7.63
2019-06-27T18:01:10.385Z,9.60
2019-06-27T18:03:40.350Z,7.97
2019-06-27T18:06:10.317Z,8.47
2019-06-27T18:08:40.074Z,8.13
2019-06-27T18:11:09.891Z,8.33
2019-06-27T18:13:39.645Z,7.67
2019-06-27T18:16:09.439Z,7.73
2019-06-27T18:18:39.275Z,7.83
2019-06-27T18:21:09.000Z,8.23
2019-06-27T18:23:38.892Z,7.77
2019-06-27T18:26:08.811Z,7.80
2019-06-27T18:28:38.536Z,10.70
2019-06-27T18:31:08.338Z,7.77
2019-06-27T18:33:38.157Z,7.90
2019-06-27T18:36:07.933Z,9.53
2019-06-27T18:38:37.798Z,8.80
2019-06-27T18:41:07.603Z,8.70
2019-06-27T18:43:37.450Z,9.17
2019-06-27T18:46:07.354Z,8.83
2019-06-27T18:48:37.167Z,10.83
2019-06-27T18:51:07.194Z,9.43
2019-06-27T18:53:37.020Z,7.97
2019-06-27T18:56:06.797Z,7.57
2019-06-27T18:58:36.642Z,8.90
2019-06-27T19:01:06.457Z,7.97
2019-06-27T19:03:36.289Z,7.60
2019-06-27T19:06:06.353Z,10.57
2019-06-27T19:08:36.031Z,8.40
2019-06-27T19:11:05.955Z,9.97
2019-06-27T19:13:35.740Z,11.17
2019-06-27T19:16:05.598Z,10.03
2019-06-27T19:18:46.231Z,8.17
2019-06-27T19:21:33.724Z,8.10
2019-06-27T19:31:16.298Z,10.90
2019-06-27T19:33:46.195Z,10.03
2019-06-27T19:36:16.112Z,9.53
2019-06-27T19:38:45.977Z,13.80
2019-06-27T19:41:15.681Z,8.33
2019-06-27T19:43:45.571Z,8.60
2019-06-27T19:46:15.299Z,9.53
2019-06-27T19:48:45.814Z,9.17
2019-06-27T19:51:15.710Z,8.33
2019-06-27T19:53:45.526Z,10.17
2019-06-27T19:56:15.327Z,8.17
2019-06-27T19:58:45.203Z,9.30
2019-06-27T20:01:15.014Z,9.97
2019-06-27T20:03:44.867Z,10.40
2019-06-27T20:06:14.703Z,11.30
2019-06-27T20:08:44.539Z,8.97
2019-06-27T20:11:14.273Z,10.27
2019-06-27T20:13:44.175Z,10.17
2019-06-27T20:16:14.075Z,10.13
2019-06-27T20:18:43.994Z,9.57
2019-06-27T20:21:13.826Z,9.97
2019-06-27T20:23:43.727Z,8.90
2019-06-27T20:26:13.458Z,10.10
2019-06-27T20:28:43.257Z,9.30
2019-06-27T20:31:13.110Z,10.27
2019-06-27T20:33:42.945Z,9.37
2019-06-27T20:36:12.736Z,8.17
2019-06-27T20:38:42.536Z,9.03
2019-06-27T20:41:12.351Z,7.90
2019-06-27T20:43:42.174Z,11.43
2019-06-27T20:46:12.113Z,8.47
2019-06-27T20:48:41.997Z,7.57
2019-06-27T20:51:11.768Z,8.10
2019-06-27T20:53:41.552Z,10.17
2019-06-27T20:56:11.358Z,10.73
2019-06-27T20:58:41.131Z,8.20
2019-06-27T21:01:10.925Z,8.40
2019-06-27T21:03:40.838Z,9.30
2019-06-27T21:06:10.678Z,8.93
2019-06-27T21:08:50.659Z,8.13
2019-06-27T21:11:12.000Z,7.23
2019-06-27T21:13:41.847Z,7.97
2019-06-27T21:16:11.642Z,8.10
2019-06-27T21:18:41.529Z,7.60
2019-06-27T21:21:11.306Z,6.50
2019-06-27T21:23:41.100Z,6.80
2019-06-27T21:26:11.016Z,10.27
2019-06-27T21:28:40.825Z,7.27
2019-06-27T21:31:10.595Z,9.47
2019-06-27T21:33:40.380Z,6.00
2019-06-27T21:36:10.246Z,7.07
2019-06-27T21:38:40.010Z,6.43
2019-06-27T21:41:09.789Z,5.43
2019-06-27T21:43:39.737Z,6.83
2019-06-27T21:46:09.631Z,5.33
2019-06-27T21:48:39.328Z,6.30
2019-06-27T21:51:09.151Z,7.20
2019-06-27T21:53:38.949Z,7.83
2019-06-27T21:56:08.873Z,5.43
2019-06-27T21:58:38.682Z,5.97
2019-06-27T22:01:08.570Z,8.53
2019-06-27T22:03:38.405Z,6.33
2019-06-27T22:06:08.150Z,6.23
2019-06-27T22:08:37.915Z,7.27
2019-06-27T22:11:08.788Z,6.90
2019-06-27T22:13:38.626Z,5.23
2019-06-27T22:16:08.451Z,5.77
2019-06-27T22:18:38.233Z,5.77
2019-06-27T22:21:08.120Z,8.57
2019-06-27T22:23:37.901Z,9.23
2019-06-27T22:26:07.798Z,6.27
2019-06-27T22:28:37.680Z,6.67
2019-06-27T22:31:07.418Z,7.20
2019-06-27T22:33:37.251Z,5.77
2019-06-27T22:36:07.013Z,5.77
2019-06-27T22:38:54.618Z,8.47
2019-06-27T22:41:41.886Z,7.60
2019-06-27T22:44:29.232Z,6.13
2019-06-27T22:47:16.546Z,7.00
2019-06-27T22:49:46.322Z,5.13
2019-06-27T22:52:47.266Z,6.90
2019-06-27T22:55:20.159Z,5.97
2019-06-27T22:57:49.924Z,5.57
2019-06-27T23:00:19.858Z,6.47
2019-06-27T23:02:49.716Z,5.40
2019-06-27T23:05:19.506Z,4.77
2019-06-27T23:07:49.355Z,8.53
2019-06-27T23:10:19.246Z,7.00
2019-06-27T23:12:48.998Z,5.20
2019-06-27T23:15:18.903Z,6.57
2019-06-27T23:17:48.654Z,5.23
2019-06-27T23:20:18.580Z,7.00
2019-06-27T23:22:48.423Z,6.73
2019-06-27T23:25:18.154Z,5.60
2019-06-27T23:27:48.420Z,6.30
2019-06-27T23:30:18.553Z,5.37
2019-06-27T23:32:48.437Z,5.10
2019-06-27T23:35:18.310Z,5.73
2019-06-27T23:37:48.142Z,5.37
2019-06-27T23:40:18.111Z,7.27
2019-06-27T23:42:47.908Z,5.80
2019-06-27T23:45:18.148Z,6.37
2019-06-27T23:47:47.926Z,5.60
2019-06-27T23:50:17.795Z,5.37
2019-06-27T23:52:47.530Z,6.40
2019-06-27T23:55:17.232Z,9.07
2019-06-27T23:57:47.091Z,5.40
